Time;durP1;ratioP1;P1;durP2;ratioP2;P2;SDS_P1;SDS_P2;PMS_P1;PMS_P2;Temp;Humidity;BMP_temperature;BMP_pressure;BME280_temperature;BME280_humidity;BME280_pressure;Samples;Min_cycle;Max_cycle;Signal;HPM_P1;HPM_P2
2023/11/27 00:00:34;;;;;;;3.77;3.57;;;2.50;61.40;;;;;;5018237;28;20790;-66
2023/11/27 00:03:01;;;;;;;4.23;3.83;;;2.50;61.90;;;;;;5028040;28;20205;-65
2023/11/27 00:05:27;;;;;;;5.60;3.40;;;2.50;62.40;;;;;;5017039;28;20231;-65
2023/11/27 00:07:54;;;;;;;4.10;3.80;;;2.50;61.40;;;;;;5029070;28;20233;-65
2023/11/27 00:10:20;;;;;;;3.83;3.53;;;2.50;61.40;;;;;;5028246;28;20214;-66
2023/11/27 00:12:48;;;;;;;3.97;3.60;;;2.50;61.70;;;;;;5031565;28;20564;-66
2023/11/27 00:15:14;;;;;;;4.30;3.90;;;2.60;61.80;;;;;;5021003;28;20237;-65
2023/11/27 00:17:41;;;;;;;3.47;3.20;;;2.50;61.40;;;;;;5024887;28;20229;-66
2023/11/27 00:20:09;;;;;;;3.30;3.10;;;2.50;61.40;;;;;;5017299;28;20595;-65
2023/11/27 00:22:35;;;;;;;3.63;3.33;;;2.50;62.00;;;;;;5030785;28;20568;-65
2023/11/27 00:25:02;;;;;;;4.20;3.90;;;2.50;62.00;;;;;;5013507;28;20316;-65
2023/11/27 00:27:28;;;;;;;3.90;3.60;;;2.40;61.70;;;;;;5029136;28;20638;-66
2023/11/27 00:29:55;;;;;;;3.97;3.60;;;2.40;62.40;;;;;;5031305;28;20243;-65
2023/11/27 00:32:22;;;;;;;3.83;3.50;;;2.50;61.60;;;;;;5026359;28;20739;-65
2023/11/27 00:34:48;;;;;;;4.30;4.00;;;2.50;62.10;;;;;;5003810;28;20233;-66
2023/11/27 00:37:16;;;;;;;4.23;3.90;;;2.50;62.10;;;;;;5005878;28;20677;-65
2023/11/27 00:39:43;;;;;;;3.97;3.57;;;2.50;61.40;;;;;;5020448;28;20206;-65
2023/11/27 00:42:10;;;;;;;3.73;3.43;;;2.40;61.30;;;;;;5023619;28;20217;-66
2023/11/27 00:44:36;;;;;;;3.70;3.50;;;2.40;61.80;;;;;;5024885;28;20263;-66
2023/11/27 00:47:03;;;;;;;3.60;3.30;;;2.50;61.40;;;;;;5016081;28;20219;-66
2023/11/27 00:49:29;;;;;;;4.10;3.57;;;2.40;61.30;;;;;;5020992;28;20215;-66
2023/11/27 00:51:56;;;;;;;3.47;3.17;;;2.40;61.30;;;;;;5022849;28;20210;-65
2023/11/27 00:54:23;;;;;;;3.67;3.37;;;2.40;61.30;;;;;;5025183;28;20207;-65
2023/11/27 00:56:49;;;;;;;3.43;3.23;;;2.50;61.10;;;;;;5023766;28;20210;-66
2023/11/27 00:59:16;;;;;;;3.27;3.07;;;2.50;60.70;;;;;;5019696;28;20207;-65
2023/11/27 01:01:42;;;;;;;3.63;3.33;;;2.50;60.90;;;;;;5022823;28;20205;-66
2023/11/27 01:04:09;;;;;;;3.37;3.07;;;2.60;61.00;;;;;;5029789;28;20279;-66
2023/11/27 01:06:35;;;;;;;3.60;3.27;;;2.60;60.70;;;;;;5019077;28;20235;-65
2023/11/27 01:09:02;;;;;;;4.43;3.50;;;2.60;60.90;;;;;;5021629;28;20348;-65
2023/11/27 01:11:29;;;;;;;3.67;3.33;;;2.60;60.50;;;;;;5026353;28;20211;-65
2023/11/27 01:13:56;;;;;;;3.27;2.77;;;2.60;60.30;;;;;;5021813;28;20205;-65
2023/11/27 01:16:22;;;;;;;3.40;3.20;;;2.60;60.50;;;;;;5023528;28;20230;-65
2023/11/27 01:18:49;;;;;;;3.50;3.20;;;2.50;60.60;;;;;;5023891;28;20237;-65
2023/11/27 01:21:15;;;;;;;3.67;3.40;;;2.50;60.90;;;;;;5026472;28;20198;-66
2023/11/27 01:23:42;;;;;;;3.73;3.40;;;2.60;60.60;;;;;;5030658;28;20206;-65
2023/11/27 01:26:09;;;;;;;3.43;3.13;;;2.60;60.40;;;;;;5027597;28;20721;-66
2023/11/27 01:28:36;;;;;;;3.73;3.10;;;2.60;60.20;;;;;;5030116;28;20643;-65
2023/11/27 01:31:03;;;;;;;3.03;2.80;;;2.60;60.00;;;;;;5022275;28;20202;-65
2023/11/27 01:33:30;;;;;;;2.93;2.73;;;2.60;59.90;;;;;;5026540;28;20305;-66
2023/11/27 01:35:56;;;;;;;3.00;2.80;;;2.60;60.00;;;;;;5026816;28;21485;-66
2023/11/27 01:38:23;;;;;;;3.67;3.17;;;2.60;59.60;;;;;;5008219;28;20203;-65
2023/11/27 01:40:50;;;;;;;3.53;3.20;;;2.50;59.80;;;;;;5031447;28;20695;-66
2023/11/27 01:43:16;;;;;;;3.40;3.20;;;2.60;60.30;;;;;;5022263;28;20207;-65
2023/11/27 01:45:43;;;;;;;3.33;3.07;;;2.60;60.40;;;;;;5028982;28;20227;-66
2023/11/27 01:48:09;;;;;;;3.47;3.20;;;2.50;60.20;;;;;;5029562;28;20222;-66
2023/11/27 01:50:36;;;;;;;3.23;3.03;;;2.60;60.10;;;;;;5024300;28;20237;-65
2023/11/27 01:53:03;;;;;;;4.30;3.63;;;2.50;60.20;;;;;;5027987;28;20214;-65
2023/11/27 01:55:29;;;;;;;3.20;2.90;;;2.50;60.40;;;;;;5026326;28;20234;-65
2023/11/27 01:57:56;;;;;;;3.30;3.00;;;2.40;60.40;;;;;;5027619;28;20199;-65
2023/11/27 02:00:22;;;;;;;3.03;2.83;;;2.30;60.80;;;;;;5021788;28;20207;-65
2023/11/27 02:02:49;;;;;;;3.23;2.90;;;2.40;60.60;;;;;;5027657;28;20305;-65
2023/11/27 02:05:16;;;;;;;3.50;3.30;;;2.40;60.80;;;;;;5010840;28;20246;-65
2023/11/27 02:07:43;;;;;;;3.20;3.00;;;2.40;60.70;;;;;;5031270;28;20229;-66
2023/11/27 02:10:10;;;;;;;3.27;3.07;;;2.30;60.40;;;;;;5025193;28;20206;-65
2023/11/27 02:12:36;;;;;;;3.07;2.60;;;2.30;60.80;;;;;;5030101;28;20221;-65
2023/11/27 02:15:03;;;;;;;3.47;3.17;;;2.30;60.90;;;;;;5029465;28;20620;-66
2023/11/27 02:17:29;;;;;;;3.23;2.93;;;2.30;60.60;;;;;;5015854;28;20234;-65
2023/11/27 02:19:56;;;;;;;3.40;3.10;;;2.40;60.50;;;;;;5027048;28;20630;-65
2023/11/27 02:22:22;;;;;;;3.20;2.87;;;2.30;60.30;;;;;;5029200;28;20230;-65
2023/11/27 02:24:49;;;;;;;3.23;3.03;;;2.30;60.70;;;;;;5028501;28;20688;-65
2023/11/27 02:27:15;;;;;;;3.80;3.50;;;2.30;60.60;;;;;;5031212;28;20221;-65
2023/11/27 02:29:43;;;;;;;3.17;2.97;;;2.30;60.50;;;;;;5028811;28;20213;-65
2023/11/27 02:32:10;;;;;;;2.67;2.47;;;2.30;60.40;;;;;;5027532;28;20210;-65
2023/11/27 02:34:36;;;;;;;3.33;2.80;;;2.30;60.30;;;;;;5025673;28;20211;-65
2023/11/27 02:37:03;;;;;;;2.97;2.77;;;2.30;60.40;;;;;;5025085;28;20260;-65
2023/11/27 02:39:30;;;;;;;3.60;2.90;;;2.30;60.40;;;;;;5029280;28;20245;-65
2023/11/27 02:41:56;;;;;;;2.90;2.70;;;2.40;60.30;;;;;;5029816;28;20213;-65
2023/11/27 02:44:23;;;;;;;3.43;2.90;;;2.40;60.30;;;;;;5028758;28;20248;-65
2023/11/27 02:46:50;;;;;;;3.10;2.90;;;2.40;59.70;;;;;;5021828;28;22100;-65
2023/11/27 02:49:17;;;;;;;3.00;2.67;;;2.50;59.50;;;;;;5035122;28;20202;-65
2023/11/27 02:51:43;;;;;;;3.17;2.97;;;2.50;59.60;;;;;;5024423;28;20261;-65
2023/11/27 02:54:11;;;;;;;3.50;2.80;;;2.50;59.50;;;;;;5025441;28;20282;-65
2023/11/27 02:56:37;;;;;;;2.73;2.53;;;2.50;59.30;;;;;;5027895;28;20256;-65
2023/11/27 02:59:04;;;;;;;2.57;2.40;;;2.50;59.20;;;;;;5033239;28;20202;-65
2023/11/27 03:01:31;;;;;;;3.07;2.87;;;2.50;59.30;;;;;;5027541;28;20960;-65
2023/11/27 03:03:57;;;;;;;2.70;2.50;;;2.60;59.20;;;;;;5033651;28;20681;-65
2023/11/27 03:06:24;;;;;;;2.67;2.47;;;2.60;59.10;;;;;;5033780;28;20759;-64
2023/11/27 03:08:51;;;;;;;2.70;2.50;;;2.60;58.40;;;;;;5033216;28;20282;-65
2023/11/27 03:11:17;;;;;;;2.80;2.60;;;2.50;58.90;;;;;;5030300;28;20241;-66
2023/11/27 03:13:44;;;;;;;2.70;2.50;;;2.60;59.00;;;;;;5021661;28;20257;-65
2023/11/27 03:16:11;;;;;;;2.47;2.33;;;2.60;58.50;;;;;;5028534;28;20219;-65
2023/11/27 03:18:37;;;;;;;3.10;2.23;;;2.50;58.40;;;;;;5023703;28;20668;-66
2023/11/27 03:21:04;;;;;;;2.53;2.33;;;2.50;58.60;;;;;;5030487;28;20206;-65
2023/11/27 03:23:30;;;;;;;2.63;2.43;;;2.60;58.30;;;;;;5029917;28;20222;-65
2023/11/27 03:25:57;;;;;;;2.50;2.30;;;2.50;58.30;;;;;;5026688;28;20233;-65
2023/11/27 03:28:24;;;;;;;2.83;2.60;;;2.50;58.10;;;;;;5026300;28;20219;-65
2023/11/27 03:30:50;;;;;;;2.60;2.40;;;2.50;58.60;;;;;;5019577;28;20571;-65
2023/11/27 03:33:17;;;;;;;2.40;2.30;;;2.50;58.20;;;;;;5031642;28;20548;-65
2023/11/27 03:35:44;;;;;;;2.83;2.50;;;2.50;58.40;;;;;;5024940;28;20252;-65
2023/11/27 03:38:10;;;;;;;2.67;2.47;;;2.50;57.90;;;;;;5028421;28;20199;-65
2023/11/27 03:40:36;;;;;;;4.50;2.93;;;2.50;58.10;;;;;;5018903;28;20276;-65
2023/11/27 03:43:02;;;;;;;3.20;2.27;;;2.50;58.50;;;;;;5023829;28;20202;-64
2023/11/27 03:45:29;;;;;;;4.17;2.50;;;2.40;58.10;;;;;;5026043;28;20256;-65
2023/11/27 03:47:55;;;;;;;3.40;2.33;;;2.40;58.60;;;;;;5025198;28;20221;-65
2023/11/27 03:50:23;;;;;;;3.03;2.70;;;2.40;58.10;;;;;;5026665;28;20222;-65
2023/11/27 03:52:49;;;;;;;2.50;2.30;;;2.40;57.90;;;;;;5019828;28;20226;-64
2023/11/27 03:55:16;;;;;;;3.00;2.70;;;2.50;58.20;;;;;;5022008;28;20768;-65
2023/11/27 03:57:43;;;;;;;3.73;2.40;;;2.40;58.00;;;;;;5024988;28;20234;-64
2023/11/27 04:00:10;;;;;;;3.13;2.30;;;2.50;58.10;;;;;;5023743;28;20618;-65
2023/11/27 04:02:37;;;;;;;2.93;2.50;;;2.50;57.50;;;;;;5029052;28;20203;-64
2023/11/27 04:05:04;;;;;;;2.73;2.33;;;2.50;57.00;;;;;;5026141;28;20237;-64
2023/11/27 04:07:31;;;;;;;2.13;2.00;;;2.40;56.90;;;;;;5027081;28;20261;-64
2023/11/27 04:09:57;;;;;;;2.57;2.37;;;2.40;57.50;;;;;;5024575;28;20735;-65
2023/11/27 04:12:24;;;;;;;2.43;2.33;;;2.40;56.90;;;;;;5026441;28;20207;-65
2023/11/27 04:14:51;;;;;;;2.60;2.40;;;2.30;57.50;;;;;;5030489;28;20237;-64
2023/11/27 04:17:18;;;;;;;2.80;2.50;;;2.30;57.60;;;;;;5012442;28;20610;-65
2023/11/27 04:19:44;;;;;;;2.73;2.40;;;2.20;57.50;;;;;;5031155;28;20563;-64
2023/11/27 04:22:11;;;;;;;2.50;2.30;;;2.20;57.70;;;;;;5030117;28;20252;-64
2023/11/27 04:24:37;;;;;;;2.70;2.53;;;2.20;57.90;;;;;;5029715;28;20680;-64
2023/11/27 04:27:04;;;;;;;2.50;2.30;;;2.20;56.70;;;;;;5017690;28;20207;-64
2023/11/27 04:29:30;;;;;;;2.50;2.40;;;2.10;56.60;;;;;;5025482;28;20214;-64
2023/11/27 04:31:57;;;;;;;2.60;2.40;;;2.10;55.80;;;;;;5024779;28;20214;-65
2023/11/27 04:34:23;;;;;;;2.17;2.07;;;2.00;56.60;;;;;;5023125;28;20256;-64
2023/11/27 04:36:50;;;;;;;2.47;2.17;;;2.00;55.80;;;;;;5020751;28;20704;-65
2023/11/27 04:39:18;;;;;;;2.23;2.13;;;2.00;56.20;;;;;;5024598;28;20203;-65
2023/11/27 04:41:44;;;;;;;3.20;3.00;;;2.10;56.50;;;;;;5019426;28;20301;-65
2023/11/27 04:44:11;;;;;;;2.20;2.10;;;2.10;55.50;;;;;;5026342;28;20206;-65
2023/11/27 04:46:37;;;;;;;2.73;2.60;;;2.00;55.80;;;;;;5021712;28;20655;-65
2023/11/27 04:49:04;;;;;;;2.40;2.20;;;1.80;55.00;;;;;;5029367;28;20249;-65
2023/11/27 04:51:30;;;;;;;2.60;2.40;;;1.90;55.30;;;;;;5026986;28;20211;-65
2023/11/27 04:53:57;;;;;;;2.60;2.40;;;1.90;55.40;;;;;;5029740;28;20280;-64
2023/11/27 04:56:24;;;;;;;2.30;2.13;;;2.00;55.20;;;;;;5026407;28;20229;-65
2023/11/27 04:58:50;;;;;;;2.40;2.30;;;2.00;54.60;;;;;;5025308;28;20676;-65
2023/11/27 05:01:17;;;;;;;2.43;2.33;;;1.90;54.40;;;;;;5016730;28;20237;-65
2023/11/27 05:03:43;;;;;;;4.03;2.13;;;1.90;54.50;;;;;;5029813;28;20248;-65
2023/11/27 05:06:10;;;;;;;2.90;2.70;;;1.90;53.70;;;;;;5023045;28;20751;-65
2023/11/27 05:08:37;;;;;;;2.73;2.00;;;1.90;53.90;;;;;;5022552;28;20262;-65
2023/11/27 05:11:04;;;;;;;2.23;2.13;;;1.90;53.40;;;;;;5025250;28;20239;-65
2023/11/27 05:13:31;;;;;;;4.40;2.43;;;2.00;53.10;;;;;;5032603;28;20244;-65
2023/11/27 05:15:57;;;;;;;2.40;2.20;;;2.10;53.80;;;;;;5032660;28;20242;-65
2023/11/27 05:18:24;;;;;;;2.00;1.90;;;2.00;53.00;;;;;;5019712;28;20218;-65
2023/11/27 05:20:51;;;;;;;2.17;2.00;;;2.00;53.20;;;;;;5003437;28;20573;-65
2023/11/27 05:23:17;;;;;;;2.27;2.17;;;1.90;53.10;;;;;;5025860;28;20208;-65
2023/11/27 05:25:44;;;;;;;2.33;2.23;;;2.00;53.70;;;;;;5022316;28;20226;-65
2023/11/27 05:28:10;;;;;;;2.10;2.00;;;2.00;53.70;;;;;;5021749;28;20253;-65
2023/11/27 05:30:37;;;;;;;2.27;2.17;;;2.00;53.50;;;;;;5029663;28;20234;-65
2023/11/27 05:33:04;;;;;;;2.40;2.20;;;2.00;53.40;;;;;;5032341;28;20203;-65
2023/11/27 05:35:31;;;;;;;2.37;2.27;;;2.00;53.40;;;;;;5024496;28;20265;-64
2023/11/27 05:37:57;;;;;;;2.30;2.10;;;2.00;53.80;;;;;;5030868;28;20222;-65
2023/11/27 05:40:25;;;;;;;2.30;2.10;;;2.10;53.70;;;;;;5032355;28;20293;-65
2023/11/27 05:42:51;;;;;;;4.13;1.90;;;2.10;53.50;;;;;;5020382;28;20213;-65
2023/11/27 05:45:18;;;;;;;1.97;1.83;;;2.20;53.70;;;;;;5028235;28;20643;-64
2023/11/27 05:47:44;;;;;;;2.33;2.13;;;2.20;53.60;;;;;;5024244;28;20273;-65
2023/11/27 05:50:12;;;;;;;6.03;2.33;;;2.20;53.70;;;;;;5033124;28;20202;-64
2023/11/27 05:52:38;;;;;;;2.77;2.10;;;2.20;54.40;;;;;;5028848;28;20262;-65
2023/11/27 05:55:05;;;;;;;2.63;1.90;;;2.20;54.20;;;;;;5028118;28;20730;-64
2023/11/27 05:57:34;;;;;;;2.07;1.97;;;2.10;53.70;;;;;;5024906;28;20272;-64
2023/11/27 06:00:00;;;;;;;2.20;2.00;;;2.10;53.90;;;;;;5028503;28;20691;-65
2023/11/27 06:02:27;;;;;;;2.30;2.10;;;2.10;54.30;;;;;;5016101;28;20243;-65
2023/11/27 06:04:54;;;;;;;2.50;2.30;;;2.00;54.10;;;;;;5023078;28;20231;-64
2023/11/27 06:07:20;;;;;;;2.27;2.07;;;2.00;53.90;;;;;;5025415;28;20229;-65
2023/11/27 06:09:46;;;;;;;2.10;2.00;;;1.90;54.30;;;;;;5031404;28;20276;-64
2023/11/27 06:12:13;;;;;;;2.50;2.37;;;2.00;54.60;;;;;;5022518;28;20275;-64
2023/11/27 06:14:40;;;;;;;2.00;1.90;;;2.00;54.40;;;;;;5025917;28;20277;-64
2023/11/27 06:17:07;;;;;;;2.37;2.17;;;2.00;54.20;;;;;;5026111;28;20219;-64
2023/11/27 06:19:33;;;;;;;3.07;2.10;;;2.00;54.30;;;;;;5033340;28;20213;-65
2023/11/27 06:22:00;;;;;;;2.00;1.90;;;2.00;54.60;;;;;;5027191;28;20221;-65
2023/11/27 06:24:27;;;;;;;3.73;2.27;;;2.10;54.00;;;;;;5023033;28;20606;-65
2023/11/27 06:26:55;;;;;;;2.40;2.20;;;2.10;54.20;;;;;;5025732;28;20260;-65
2023/11/27 06:29:21;;;;;;;2.07;1.97;;;2.10;54.20;;;;;;5032569;28;20708;-64
2023/11/27 06:31:48;;;;;;;2.27;2.17;;;2.10;54.30;;;;;;5028030;28;20263;-64
2023/11/27 06:34:15;;;;;;;2.53;2.30;;;2.20;54.10;;;;;;5029360;28;20296;-65
2023/11/27 06:36:41;;;;;;;2.73;2.50;;;2.20;53.90;;;;;;5029095;28;20320;-65
2023/11/27 06:39:08;;;;;;;2.60;2.40;;;2.20;54.20;;;;;;5024617;28;20646;-64
2023/11/27 06:41:35;;;;;;;2.50;2.30;;;2.30;53.60;;;;;;5027848;28;20206;-64
2023/11/27 06:44:01;;;;;;;2.50;2.30;;;2.30;53.40;;;;;;5032182;28;20256;-65
2023/11/27 06:46:28;;;;;;;2.70;2.10;;;2.20;53.70;;;;;;5025993;28;20686;-65
2023/11/27 06:48:54;;;;;;;2.97;2.60;;;2.20;54.50;;;;;;5028499;28;20237;-64
2023/11/27 06:51:21;;;;;;;2.63;2.43;;;2.20;54.30;;;;;;5021269;28;20260;-64
2023/11/27 06:53:47;;;;;;;2.87;2.33;;;2.20;53.70;;;;;;5018812;28;20211;-64
2023/11/27 06:56:14;;;;;;;2.10;2.00;;;2.20;54.10;;;;;;5029383;28;20224;-64
2023/11/27 06:58:41;;;;;;;2.40;2.20;;;2.20;53.60;;;;;;5030036;28;20209;-66
2023/11/27 07:01:07;;;;;;;2.30;2.20;;;2.10;53.50;;;;;;5026301;28;20206;-65
2023/11/27 07:03:34;;;;;;;2.20;2.10;;;2.20;54.20;;;;;;5023232;28;20253;-66
2023/11/27 07:06:00;;;;;;;2.23;2.10;;;2.20;53.70;;;;;;5028160;28;20222;-66
2023/11/27 07:08:27;;;;;;;2.20;2.03;;;2.20;53.00;;;;;;5025646;28;20226;-66
2023/11/27 07:10:53;;;;;;;2.73;2.53;;;2.20;53.30;;;;;;5018523;28;20739;-66
2023/11/27 07:13:20;;;;;;;2.47;2.37;;;2.30;53.60;;;;;;5024023;28;20237;-65
2023/11/27 07:15:46;;;;;;;2.27;2.17;;;2.30;53.50;;;;;;5026760;28;20257;-65
2023/11/27 07:18:13;;;;;;;1.90;1.80;;;2.30;52.80;;;;;;5023413;28;20207;-66
2023/11/27 07:20:40;;;;;;;2.20;2.10;;;2.30;52.40;;;;;;5019935;28;20214;-66
2023/11/27 07:23:07;;;;;;;2.10;2.00;;;2.30;52.50;;;;;;5019944;28;20238;-66
2023/11/27 07:25:34;;;;;;;2.20;2.00;;;2.30;52.50;;;;;;5026245;28;20233;-66
2023/11/27 07:28:00;;;;;;;2.13;1.97;;;2.20;52.50;;;;;;5028745;28;20203;-66
2023/11/27 07:30:29;;;;;;;2.20;2.10;;;2.30;52.80;;;;;;5024986;28;20218;-66
2023/11/27 07:32:56;;;;;;;1.93;1.83;;;2.40;53.20;;;;;;5015069;28;20202;-66
2023/11/27 07:35:22;;;;;;;2.27;2.17;;;2.30;52.50;;;;;;5021109;28;22614;-65
2023/11/27 07:37:49;;;;;;;2.10;1.83;;;2.30;53.20;;;;;;5019537;28;20230;-66
2023/11/27 07:40:15;;;;;;;2.30;2.10;;;2.50;53.00;;;;;;5021337;28;20380;-65
2023/11/27 07:42:43;;;;;;;2.07;1.90;;;2.50;53.40;;;;;;5019856;28;20214;-66
2023/11/27 07:45:09;;;;;;;2.40;2.20;;;2.60;52.70;;;;;;5019874;28;20277;-66
2023/11/27 07:47:36;;;;;;;2.27;1.80;;;2.60;52.70;;;;;;5019552;28;20243;-65
2023/11/27 07:50:03;;;;;;;2.37;2.13;;;2.70;52.80;;;;;;5023548;28;20254;-66
2023/11/27 07:52:29;;;;;;;2.37;2.20;;;2.80;52.90;;;;;;5027355;28;20222;-66
2023/11/27 07:54:56;;;;;;;2.67;2.30;;;2.80;52.90;;;;;;5030814;28;20276;-65
2023/11/27 07:57:23;;;;;;;3.40;2.60;;;2.90;53.00;;;;;;5025859;28;20207;-66
2023/11/27 07:59:51;;;;;;;2.60;2.40;;;2.90;53.00;;;;;;5030288;28;20237;-66
2023/11/27 08:02:18;;;;;;;2.90;2.70;;;3.00;53.10;;;;;;5031880;28;20214;-65
2023/11/27 08:04:44;;;;;;;2.60;2.40;;;3.10;53.20;;;;;;5027779;28;20675;-65
2023/11/27 08:07:11;;;;;;;4.03;2.70;;;3.00;52.80;;;;;;5013998;28;20238;-67
2023/11/27 08:09:38;;;;;;;4.10;2.90;;;3.20;53.90;;;;;;5022170;28;20226;-68
2023/11/27 08:12:05;;;;;;;2.83;2.63;;;3.40;53.40;;;;;;5022476;28;20207;-67
2023/11/27 08:14:32;;;;;;;2.77;2.43;;;3.80;52.30;;;;;;5018510;28;20275;-66
2023/11/27 08:16:58;;;;;;;3.27;2.70;;;3.70;51.50;;;;;;5010810;28;20214;-68
2023/11/27 08:19:25;;;;;;;4.47;2.67;;;3.90;51.80;;;;;;5030441;28;20207;-67
2023/11/27 08:21:52;;;;;;;2.77;2.43;;;4.10;51.30;;;;;;5012553;28;20580;-68
2023/11/27 08:24:18;;;;;;;4.37;2.27;;;4.30;50.30;;;;;;5031103;28;20204;-67
2023/11/27 08:26:49;;;;;;;5.00;2.40;;;4.50;48.70;;;;;;5024775;28;20211;-68
2023/11/27 08:29:17;;;;;;;2.63;2.30;;;5.00;48.70;;;;;;5023485;28;20225;-67
2023/11/27 08:31:44;;;;;;;2.30;2.10;;;5.40;48.40;;;;;;5019434;28;20206;-67
2023/11/27 08:34:11;;;;;;;2.50;2.23;;;5.60;47.30;;;;;;5021126;28;20209;-67
2023/11/27 08:36:37;;;;;;;3.37;2.27;;;5.30;46.10;;;;;;5027016;28;20234;-67
2023/11/27 08:39:04;;;;;;;3.57;2.30;;;5.70;46.40;;;;;;5030866;28;20609;-68
2023/11/27 08:41:32;;;;;;;2.50;2.30;;;5.90;46.50;;;;;;5034808;28;20657;-67
2023/11/27 08:43:59;;;;;;;3.00;2.10;;;6.20;45.70;;;;;;5005487;28;20566;-67
2023/11/27 08:46:25;;;;;;;2.30;2.10;;;6.10;44.80;;;;;;5017866;28;20260;-66
2023/11/27 08:48:52;;;;;;;2.30;2.10;;;5.70;44.50;;;;;;5018905;28;20224;-67
2023/11/27 08:51:21;;;;;;;2.00;1.67;;;5.80;43.40;;;;;;5028949;28;20674;-66
2023/11/27 08:53:48;;;;;;;2.10;2.00;;;6.00;44.00;;;;;;5028929;28;20223;-67
2023/11/27 08:56:17;;;;;;;3.47;2.33;;;5.80;43.80;;;;;;5022960;28;20645;-67
2023/11/27 08:58:47;;;;;;;2.20;2.00;;;5.90;45.10;;;;;;5027655;28;20270;-68
2023/11/27 09:01:14;;;;;;;2.50;2.30;;;6.00;43.70;;;;;;5024341;28;20214;-67
2023/11/27 09:03:41;;;;;;;2.90;2.57;;;6.10;42.30;;;;;;5021720;28;20272;-68
2023/11/27 09:06:09;;;;;;;3.77;2.00;;;6.30;43.70;;;;;;5026017;28;20268;-68
2023/11/27 09:08:35;;;;;;;1.87;1.77;;;6.50;41.90;;;;;;5021030;28;20698;-68
2023/11/27 09:11:02;;;;;;;1.87;1.67;;;6.80;40.60;;;;;;5034537;28;20250;-67
2023/11/27 09:13:29;;;;;;;5.27;1.70;;;6.90;40.90;;;;;;5026628;28;20244;-66
2023/11/27 09:15:56;;;;;;;1.77;1.67;;;7.20;41.40;;;;;;5026713;28;20342;-63
2023/11/27 09:18:22;;;;;;;1.60;1.50;;;6.50;40.70;;;;;;5027832;28;20206;-64
2023/11/27 09:20:49;;;;;;;1.73;1.60;;;7.00;40.70;;;;;;5025583;28;20214;-64
2023/11/27 09:23:16;;;;;;;4.23;1.70;;;7.10;39.80;;;;;;5001738;28;20286;-64
2023/11/27 09:25:42;;;;;;;2.03;1.50;;;7.70;38.40;;;;;;5017728;28;20800;-63
2023/11/27 09:28:09;;;;;;;2.30;2.10;;;8.70;36.70;;;;;;5019612;28;20321;-64
2023/11/27 09:30:35;;;;;;;1.57;1.47;;;8.80;35.80;;;;;;5023070;28;20268;-63
2023/11/27 09:33:04;;;;;;;1.50;1.40;;;9.90;33.50;;;;;;5026955;28;20762;-63
2023/11/27 09:35:30;;;;;;;1.83;1.67;;;9.70;32.60;;;;;;5019879;28;20597;-64
2023/11/27 09:37:57;;;;;;;1.70;1.43;;;9.60;34.10;;;;;;5023482;28;20200;-62
2023/11/27 09:40:23;;;;;;;1.60;1.50;;;9.60;34.60;;;;;;5019358;28;20252;-63
2023/11/27 09:42:50;;;;;;;1.77;1.40;;;9.70;34.40;;;;;;5028571;28;20212;-63
2023/11/27 09:45:18;;;;;;;1.60;1.40;;;10.00;33.90;;;;;;5024915;28;20231;-64
2023/11/27 09:47:44;;;;;;;1.60;1.50;;;10.00;33.60;;;;;;5020853;28;20216;-65
2023/11/27 09:50:12;;;;;;;1.70;1.60;;;9.50;33.90;;;;;;5029573;28;20225;-64
2023/11/27 09:52:39;;;;;;;2.17;1.87;;;9.50;35.20;;;;;;5026800;28;20678;-62
2023/11/27 09:55:06;;;;;;;2.07;1.43;;;9.70;35.90;;;;;;5016061;28;20259;-65
2023/11/27 09:57:32;;;;;;;2.13;1.60;;;9.60;35.90;;;;;;5019167;28;20874;-65
2023/11/27 09:59:59;;;;;;;1.67;1.40;;;8.50;35.70;;;;;;5033617;28;20246;-65
2023/11/27 10:02:26;;;;;;;2.90;1.63;;;8.50;37.00;;;;;;5032975;28;20210;-65
2023/11/27 10:04:53;;;;;;;1.73;1.50;;;8.40;36.30;;;;;;5032516;28;20266;-65
2023/11/27 10:07:21;;;;;;;2.17;1.50;;;8.50;35.90;;;;;;5033053;28;20242;-65
2023/11/27 10:09:50;;;;;;;1.40;1.37;;;8.60;35.60;;;;;;5032758;28;20238;-64
2023/11/27 10:12:17;;;;;;;1.83;1.30;;;8.80;35.80;;;;;;5027287;28;20217;-65
2023/11/27 10:14:45;;;;;;;5.00;1.70;;;8.90;34.80;;;;;;5024760;28;20262;-64
2023/11/27 10:17:11;;;;;;;1.40;1.30;;;9.20;35.60;;;;;;5032687;28;20218;-65
2023/11/27 10:19:38;;;;;;;1.70;1.60;;;9.00;35.40;;;;;;5032918;28;20242;-64
2023/11/27 10:22:04;;;;;;;2.00;1.80;;;8.60;36.10;;;;;;5033058;28;20226;-65
2023/11/27 10:24:33;;;;;;;2.53;1.50;;;8.70;36.10;;;;;;5017108;28;20221;-64
2023/11/27 10:27:00;;;;;;;2.53;1.20;;;8.70;35.10;;;;;;5032116;28;20660;-65
2023/11/27 10:29:26;;;;;;;6.50;1.50;;;8.50;35.20;;;;;;5032611;28;20675;-64
2023/11/27 10:31:53;;;;;;;2.00;1.60;;;8.40;36.10;;;;;;5017194;28;20247;-64
2023/11/27 10:34:19;;;;;;;1.90;1.40;;;8.40;35.30;;;;;;5031610;28;20208;-64
2023/11/27 10:36:46;;;;;;;1.50;1.40;;;8.20;36.00;;;;;;5031186;28;20654;-64
2023/11/27 10:39:15;;;;;;;3.13;1.33;;;8.50;36.70;;;;;;5025298;28;20207;-65
2023/11/27 10:41:41;;;;;;;2.73;1.50;;;8.20;36.10;;;;;;5032813;28;20297;-64
2023/11/27 10:44:08;;;;;;;3.47;1.50;;;7.50;36.00;;;;;;5019950;28;20216;-64
2023/11/27 10:46:35;;;;;;;2.10;1.40;;;7.50;36.70;;;;;;5028636;28;20305;-64
2023/11/27 10:49:01;;;;;;;2.07;1.53;;;7.50;38.00;;;;;;5014168;28;20249;-65
2023/11/27 10:51:30;;;;;;;1.50;1.40;;;7.80;37.70;;;;;;5031302;28;20206;-64
2023/11/27 10:53:57;;;;;;;3.00;1.80;;;7.70;37.80;;;;;;5021155;28;20694;-64
2023/11/27 10:56:23;;;;;;;2.60;1.50;;;7.60;37.00;;;;;;5011101;28;20233;-64
2023/11/27 10:58:50;;;;;;;2.93;1.67;;;7.60;36.50;;;;;;5032762;28;20282;-64
2023/11/27 11:01:19;;;;;;;4.37;1.60;;;7.50;37.60;;;;;;5031924;28;20248;-65
2023/11/27 11:03:45;;;;;;;2.73;1.83;;;7.50;38.80;;;;;;5018545;28;20210;-65
2023/11/27 11:06:11;;;;;;;2.77;1.47;;;7.40;38.10;;;;;;5022654;28;20230;-66
2023/11/27 11:08:38;;;;;;;2.80;2.10;;;7.20;38.60;;;;;;5004732;28;20301;-65
2023/11/27 11:11:06;;;;;;;2.67;1.77;;;7.00;38.40;;;;;;5013956;28;20233;-65
2023/11/27 11:13:32;;;;;;;2.30;1.70;;;7.00;38.90;;;;;;5017985;28;20228;-65
2023/11/27 11:16:00;;;;;;;2.40;1.80;;;7.00;39.00;;;;;;5018817;28;20248;-65
2023/11/27 11:18:27;;;;;;;4.33;2.00;;;7.00;38.80;;;;;;5024511;28;20231;-63
2023/11/27 11:20:53;;;;;;;2.40;1.67;;;6.70;39.00;;;;;;5020959;28;20200;-63
2023/11/27 11:23:22;;;;;;;3.00;2.00;;;6.80;39.20;;;;;;5016350;28;20234;-64
2023/11/27 11:25:50;;;;;;;2.47;1.80;;;7.30;39.40;;;;;;5023274;28;20656;-63
2023/11/27 11:28:17;;;;;;;1.90;1.80;;;7.50;38.10;;;;;;5031691;28;20298;-63
2023/11/27 11:30:44;;;;;;;1.70;1.60;;;7.50;37.30;;;;;;5027949;28;20228;-64
2023/11/27 11:33:17;;;;;;;2.00;1.90;;;7.60;36.30;;;;;;5024497;28;20215;-64
2023/11/27 11:35:44;;;;;;;1.73;1.30;;;7.40;37.50;;;;;;5026826;28;20261;-64
2023/11/27 11:38:10;;;;;;;2.93;1.77;;;7.40;38.60;;;;;;5021085;28;20313;-62
2023/11/27 11:40:40;;;;;;;4.10;1.90;;;7.00;37.30;;;;;;5015045;28;20301;-64
2023/11/27 11:43:07;;;;;;;4.27;2.07;;;6.70;38.20;;;;;;5020297;28;20310;-63
2023/11/27 11:45:33;;;;;;;3.07;2.33;;;6.80;38.60;;;;;;5029552;28;20230;-64
2023/11/27 11:48:00;;;;;;;1.70;1.60;;;6.80;38.20;;;;;;5030804;28;20318;-64
2023/11/27 11:50:28;;;;;;;2.10;1.90;;;7.00;37.50;;;;;;5001949;28;20704;-65
2023/11/27 11:52:55;;;;;;;4.93;1.90;;;7.10;37.80;;;;;;5022777;28;20691;-63
2023/11/27 11:55:21;;;;;;;2.60;1.70;;;7.20;37.50;;;;;;5018277;28;20233;-62
2023/11/27 11:57:48;;;;;;;2.87;1.97;;;7.20;37.50;;;;;;5017484;28;20235;-63
2023/11/27 12:00:19;;;;;;;1.80;1.70;;;7.20;37.70;;;;;;5024691;28;20262;-63
2023/11/27 12:02:46;;;;;;;2.00;1.80;;;7.00;38.40;;;;;;5017745;28;20208;-63
2023/11/27 12:05:13;;;;;;;1.90;1.80;;;7.20;38.20;;;;;;5019572;28;20314;-63
2023/11/27 12:07:39;;;;;;;2.33;1.83;;;6.90;37.70;;;;;;4998689;28;20290;-63
2023/11/27 12:10:06;;;;;;;2.97;1.63;;;6.80;38.30;;;;;;5017764;28;20256;-62
2023/11/27 12:12:33;;;;;;;1.70;1.60;;;6.90;39.00;;;;;;5010451;28;20242;-63
2023/11/27 12:15:00;;;;;;;2.90;1.83;;;6.80;38.40;;;;;;5015066;28;20253;-63
2023/11/27 12:17:28;;;;;;;2.73;2.00;;;6.90;38.30;;;;;;5023851;28;20210;-63
2023/11/27 12:19:55;;;;;;;1.90;1.80;;;6.70;38.20;;;;;;5021633;28;20285;-63
2023/11/27 12:22:21;;;;;;;1.70;1.60;;;6.60;39.20;;;;;;5023118;28;20207;-63
2023/11/27 12:24:48;;;;;;;2.27;1.70;;;6.70;39.00;;;;;;5021882;28;20284;-63
2023/11/27 12:27:15;;;;;;;2.03;1.87;;;6.70;38.10;;;;;;5018027;28;20199;-63
2023/11/27 12:29:41;;;;;;;2.20;2.00;;;6.70;38.70;;;;;;5012675;28;20227;-63
2023/11/27 12:32:08;;;;;;;2.00;1.80;;;6.90;38.30;;;;;;5029689;28;20223;-63
2023/11/27 12:34:35;;;;;;;1.60;1.50;;;6.80;38.30;;;;;;5017938;28;20214;-63
2023/11/27 12:37:03;;;;;;;1.93;1.80;;;6.80;38.20;;;;;;5017770;28;20210;-63
2023/11/27 12:39:29;;;;;;;1.73;1.63;;;6.80;38.20;;;;;;5022047;28;20596;-63
2023/11/27 12:42:01;;;;;;;3.17;2.10;;;6.80;38.30;;;;;;5025677;28;20665;-63
2023/11/27 12:44:28;;;;;;;3.30;2.40;;;6.80;38.50;;;;;;5028911;28;20291;-63
2023/11/27 12:46:55;;;;;;;2.27;1.90;;;6.70;38.20;;;;;;5018460;28;20214;-63
2023/11/27 12:49:22;;;;;;;1.83;1.73;;;6.50;37.20;;;;;;5020747;28;20203;-63
2023/11/27 12:51:47;;;;;;;1.63;1.53;;;6.50;38.00;;;;;;5028557;28;20573;-63
2023/11/27 12:54:18;;;;;;;2.27;1.90;;;6.60;38.10;;;;;;5024063;28;20213;-63